sensor_id;sensor_type;location;lat;lon;timestamp;temperature;humidity
15127;DHT22;7664;52.008;4.748;2023-12-20T00:02:15;8.00;99.90
15127;DHT22;7664;52.008;4.748;2023-12-20T00:04:43;7.90;99.90
15127;DHT22;7664;52.008;4.748;2023-12-20T00:07:11;7.90;99.90
15127;DHT22;7664;52.008;4.748;2023-12-20T00:09:40;7.90;99.90
15127;DHT22;7664;52.008;4.748;2023-12-20T00:12:08;7.90;99.90
15127;DHT22;7664;52.008;4.748;2023-12-20T00:14:39;7.90;99.90
15127;DHT22;7664;52.008;4.748;2023-12-20T00:17:07;7.90;99.90
15127;DHT22;7664;52.008;4.748;2023-12-20T00:19:36;7.90;99.90
15127;DHT22;7664;52.008;4.748;2023-12-20T00:22:04;7.80;99.90
15127;DHT22;7664;52.008;4.748;2023-12-20T00:24:33;7.80;99.90
15127;DHT22;7664;52.008;4.748;2023-12-20T00:27:01;7.80;99.90
15127;DHT22;7664;52.008;4.748;2023-12-20T00:29:29;7.80;99.90
15127;DHT22;7664;52.008;4.748;2023-12-20T00:31:58;7.80;99.90
15127;DHT22;7664;52.008;4.748;2023-12-20T00:34:26;7.80;99.90
15127;DHT22;7664;52.008;4.748;2023-12-20T00:36:54;7.80;99.90
15127;DHT22;7664;52.008;4.748;2023-12-20T00:39:23;7.80;99.90
15127;DHT22;7664;52.008;4.748;2023-12-20T00:41:52;7.80;99.90
15127;DHT22;7664;52.008;4.748;2023-12-20T00:44:20;7.70;99.90
15127;DHT22;7664;52.008;4.748;2023-12-20T00:46:48;7.70;99.90
15127;DHT22;7664;52.008;4.748;2023-12-20T00:49:18;7.70;99.90
15127;DHT22;7664;52.008;4.748;2023-12-20T00:51:46;7.70;99.90
15127;DHT22;7664;52.008;4.748;2023-12-20T00:54:17;7.80;99.90
15127;DHT22;7664;52.008;4.748;2023-12-20T00:56:45;7.70;99.90
15127;DHT22;7664;52.008;4.748;2023-12-20T00:59:13;7.70;99.90
15127;DHT22;7664;52.008;4.748;2023-12-20T01:01:41;7.70;99.90
15127;DHT22;7664;52.008;4.748;2023-12-20T01:04:10;7.80;99.90
15127;DHT22;7664;52.008;4.748;2023-12-20T01:06:39;7.70;99.90
15127;DHT22;7664;52.008;4.748;2023-12-20T01:09:08;7.90;99.90
15127;DHT22;7664;52.008;4.748;2023-12-20T01:11:36;7.80;99.90
15127;DHT22;7664;52.008;4.748;2023-12-20T01:14:05;7.80;99.90
15127;DHT22;7664;52.008;4.748;2023-12-20T01:16:33;7.90;99.90
15127;DHT22;7664;52.008;4.748;2023-12-20T01:19:01;7.90;99.90
15127;DHT22;7664;52.008;4.748;2023-12-20T01:21:29;7.90;99.90
15127;DHT22;7664;52.008;4.748;2023-12-20T01:23:59;8.00;99.90
15127;DHT22;7664;52.008;4.748;2023-12-20T01:26:27;8.00;99.90
15127;DHT22;7664;52.008;4.748;2023-12-20T01:28:55;8.00;99.90
15127;DHT22;7664;52.008;4.748;2023-12-20T01:31:23;8.00;99.90
15127;DHT22;7664;52.008;4.748;2023-12-20T01:33:51;8.00;99.90
15127;DHT22;7664;52.008;4.748;2023-12-20T01:36:19;8.00;99.90
15127;DHT22;7664;52.008;4.748;2023-12-20T01:38:48;8.00;99.90
15127;DHT22;7664;52.008;4.748;2023-12-20T01:41:18;8.00;99.90
15127;DHT22;7664;52.008;4.748;2023-12-20T01:43:46;8.00;99.90
15127;DHT22;7664;52.008;4.748;2023-12-20T01:46:18;8.00;99.90
15127;DHT22;7664;52.008;4.748;2023-12-20T01:48:47;8.00;99.90
15127;DHT22;7664;52.008;4.748;2023-12-20T01:51:17;8.00;99.90
15127;DHT22;7664;52.008;4.748;2023-12-20T01:53:45;8.00;99.90
15127;DHT22;7664;52.008;4.748;2023-12-20T01:56:14;8.10;99.90
15127;DHT22;7664;52.008;4.748;2023-12-20T01:58:45;8.10;99.90
15127;DHT22;7664;52.008;4.748;2023-12-20T02:01:14;8.10;99.90
15127;DHT22;7664;52.008;4.748;2023-12-20T02:03:43;8.00;99.90
15127;DHT22;7664;52.008;4.748;2023-12-20T02:06:11;8.10;99.90
15127;DHT22;7664;52.008;4.748;2023-12-20T02:08:40;8.10;99.90
15127;DHT22;7664;52.008;4.748;2023-12-20T02:11:08;8.10;99.90
15127;DHT22;7664;52.008;4.748;2023-12-20T02:13:37;8.10;99.90
15127;DHT22;7664;52.008;4.748;2023-12-20T02:16:07;8.20;99.90
15127;DHT22;7664;52.008;4.748;2023-12-20T02:18:35;8.20;99.90
15127;DHT22;7664;52.008;4.748;2023-12-20T02:21:04;8.30;99.90
15127;DHT22;7664;52.008;4.748;2023-12-20T02:23:34;8.30;99.90
15127;DHT22;7664;52.008;4.748;2023-12-20T02:26:03;8.30;99.90
15127;DHT22;7664;52.008;4.748;2023-12-20T02:28:31;8.20;99.90
15127;DHT22;7664;52.008;4.748;2023-12-20T02:31:00;8.20;99.90
15127;DHT22;7664;52.008;4.748;2023-12-20T02:33:28;8.30;99.90
15127;DHT22;7664;52.008;4.748;2023-12-20T02:35:56;8.30;99.90
15127;DHT22;7664;52.008;4.748;2023-12-20T02:38:24;8.30;99.90
15127;DHT22;7664;52.008;4.748;2023-12-20T02:40:54;8.30;99.90
15127;DHT22;7664;52.008;4.748;2023-12-20T02:43:22;8.30;99.90
15127;DHT22;7664;52.008;4.748;2023-12-20T02:45:50;8.30;99.90
15127;DHT22;7664;52.008;4.748;2023-12-20T02:48:18;8.30;99.90
15127;DHT22;7664;52.008;4.748;2023-12-20T02:50:47;8.30;99.90
15127;DHT22;7664;52.008;4.748;2023-12-20T02:53:15;8.30;99.90
15127;DHT22;7664;52.008;4.748;2023-12-20T02:55:43;8.30;99.90
15127;DHT22;7664;52.008;4.748;2023-12-20T02:58:13;8.30;99.90
15127;DHT22;7664;52.008;4.748;2023-12-20T03:00:41;8.30;99.90
15127;DHT22;7664;52.008;4.748;2023-12-20T03:03:10;8.30;99.90
15127;DHT22;7664;52.008;4.748;2023-12-20T03:05:38;8.30;99.90
15127;DHT22;7664;52.008;4.748;2023-12-20T03:08:06;8.30;99.90
15127;DHT22;7664;52.008;4.748;2023-12-20T03:10:34;8.30;99.90
15127;DHT22;7664;52.008;4.748;2023-12-20T03:13:03;8.30;99.90
15127;DHT22;7664;52.008;4.748;2023-12-20T03:15:33;8.20;99.90
15127;DHT22;7664;52.008;4.748;2023-12-20T03:18:01;8.20;99.90
15127;DHT22;7664;52.008;4.748;2023-12-20T03:20:29;8.20;99.90
15127;DHT22;7664;52.008;4.748;2023-12-20T03:23:01;8.20;99.90
15127;DHT22;7664;52.008;4.748;2023-12-20T03:25:29;8.20;99.90
15127;DHT22;7664;52.008;4.748;2023-12-20T03:27:57;8.20;99.90
15127;DHT22;7664;52.008;4.748;2023-12-20T03:30:26;8.20;99.90
15127;DHT22;7664;52.008;4.748;2023-12-20T03:32:55;8.30;99.90
15127;DHT22;7664;52.008;4.748;2023-12-20T03:35:23;8.30;99.90
15127;DHT22;7664;52.008;4.748;2023-12-20T03:37:51;8.30;99.90
15127;DHT22;7664;52.008;4.748;2023-12-20T03:40:20;8.30;99.90
15127;DHT22;7664;52.008;4.748;2023-12-20T03:42:49;8.30;99.90
15127;DHT22;7664;52.008;4.748;2023-12-20T03:45:17;8.30;99.90
15127;DHT22;7664;52.008;4.748;2023-12-20T03:47:45;8.30;99.90
15127;DHT22;7664;52.008;4.748;2023-12-20T03:50:16;8.30;99.90
15127;DHT22;7664;52.008;4.748;2023-12-20T03:52:45;8.30;99.90
15127;DHT22;7664;52.008;4.748;2023-12-20T03:55:13;8.30;99.90
15127;DHT22;7664;52.008;4.748;2023-12-20T03:57:41;8.30;99.90
15127;DHT22;7664;52.008;4.748;2023-12-20T04:00:11;8.30;99.90
15127;DHT22;7664;52.008;4.748;2023-12-20T04:02:40;8.30;99.90
15127;DHT22;7664;52.008;4.748;2023-12-20T04:05:09;8.30;99.90
15127;DHT22;7664;52.008;4.748;2023-12-20T04:07:39;8.20;99.90
15127;DHT22;7664;52.008;4.748;2023-12-20T04:10:08;8.20;99.90
15127;DHT22;7664;52.008;4.748;2023-12-20T04:12:36;8.20;99.90
15127;DHT22;7664;52.008;4.748;2023-12-20T04:15:05;8.30;99.90
15127;DHT22;7664;52.008;4.748;2023-12-20T04:17:36;8.20;99.90
15127;DHT22;7664;52.008;4.748;2023-12-20T04:20:06;8.20;99.90
15127;DHT22;7664;52.008;4.748;2023-12-20T04:22:35;8.20;99.90
15127;DHT22;7664;52.008;4.748;2023-12-20T04:25:05;8.20;99.90
15127;DHT22;7664;52.008;4.748;2023-12-20T04:27:33;8.30;99.90
15127;DHT22;7664;52.008;4.748;2023-12-20T04:30:01;8.30;99.90
15127;DHT22;7664;52.008;4.748;2023-12-20T04:32:30;8.30;99.90
15127;DHT22;7664;52.008;4.748;2023-12-20T04:34:58;8.30;99.90
15127;DHT22;7664;52.008;4.748;2023-12-20T04:37:26;8.30;99.90
15127;DHT22;7664;52.008;4.748;2023-12-20T04:39:54;8.30;99.90
15127;DHT22;7664;52.008;4.748;2023-12-20T04:42:24;8.30;99.90
15127;DHT22;7664;52.008;4.748;2023-12-20T04:44:52;8.20;99.90
15127;DHT22;7664;52.008;4.748;2023-12-20T04:47:20;8.20;99.90
15127;DHT22;7664;52.008;4.748;2023-12-20T04:49:48;8.20;99.90
15127;DHT22;7664;52.008;4.748;2023-12-20T04:52:16;8.20;99.90
15127;DHT22;7664;52.008;4.748;2023-12-20T04:54:45;8.10;99.90
15127;DHT22;7664;52.008;4.748;2023-12-20T04:57:13;8.10;99.90
15127;DHT22;7664;52.008;4.748;2023-12-20T04:59:42;8.00;99.90
15127;DHT22;7664;52.008;4.748;2023-12-20T05:02:11;8.00;99.90
15127;DHT22;7664;52.008;4.748;2023-12-20T05:04:39;8.00;99.90
15127;DHT22;7664;52.008;4.748;2023-12-20T05:07:08;8.00;99.90
15127;DHT22;7664;52.008;4.748;2023-12-20T05:09:36;8.10;99.90
15127;DHT22;7664;52.008;4.748;2023-12-20T05:12:06;8.10;99.90
15127;DHT22;7664;52.008;4.748;2023-12-20T05:14:34;8.10;99.90
15127;DHT22;7664;52.008;4.748;2023-12-20T05:17:04;8.10;99.90
15127;DHT22;7664;52.008;4.748;2023-12-20T05:19:32;8.10;99.90
15127;DHT22;7664;52.008;4.748;2023-12-20T05:22:02;8.10;99.90
15127;DHT22;7664;52.008;4.748;2023-12-20T05:24:30;8.10;99.90
15127;DHT22;7664;52.008;4.748;2023-12-20T05:26:58;8.00;99.90
15127;DHT22;7664;52.008;4.748;2023-12-20T05:29:27;8.00;99.90
15127;DHT22;7664;52.008;4.748;2023-12-20T05:31:55;8.00;99.90
15127;DHT22;7664;52.008;4.748;2023-12-20T05:34:24;8.00;99.90
15127;DHT22;7664;52.008;4.748;2023-12-20T05:36:52;8.00;99.90
15127;DHT22;7664;52.008;4.748;2023-12-20T05:39:20;8.00;99.90
15127;DHT22;7664;52.008;4.748;2023-12-20T05:41:49;8.10;99.90
15127;DHT22;7664;52.008;4.748;2023-12-20T05:44:17;8.10;99.90
15127;DHT22;7664;52.008;4.748;2023-12-20T05:46:45;8.10;99.90
15127;DHT22;7664;52.008;4.748;2023-12-20T05:49:13;8.10;99.90
15127;DHT22;7664;52.008;4.748;2023-12-20T05:51:43;8.20;99.90
15127;DHT22;7664;52.008;4.748;2023-12-20T05:54:11;8.20;99.90
15127;DHT22;7664;52.008;4.748;2023-12-20T05:56:40;8.20;99.90
15127;DHT22;7664;52.008;4.748;2023-12-20T05:59:08;8.30;99.90
15127;DHT22;7664;52.008;4.748;2023-12-20T06:01:36;8.30;99.90
15127;DHT22;7664;52.008;4.748;2023-12-20T06:04:05;8.30;99.90
15127;DHT22;7664;52.008;4.748;2023-12-20T06:06:33;8.30;99.90
15127;DHT22;7664;52.008;4.748;2023-12-20T06:09:03;8.30;99.90
15127;DHT22;7664;52.008;4.748;2023-12-20T06:11:31;8.30;99.90
15127;DHT22;7664;52.008;4.748;2023-12-20T06:13:59;8.30;99.90
15127;DHT22;7664;52.008;4.748;2023-12-20T06:16:27;8.30;99.90
15127;DHT22;7664;52.008;4.748;2023-12-20T06:18:55;8.30;99.90
15127;DHT22;7664;52.008;4.748;2023-12-20T06:21:23;8.30;99.90
15127;DHT22;7664;52.008;4.748;2023-12-20T06:23:51;8.40;99.90
15127;DHT22;7664;52.008;4.748;2023-12-20T06:26:21;8.40;99.90
15127;DHT22;7664;52.008;4.748;2023-12-20T06:28:49;8.40;99.90
15127;DHT22;7664;52.008;4.748;2023-12-20T06:31:17;8.50;99.90
15127;DHT22;7664;52.008;4.748;2023-12-20T06:33:45;8.50;99.90
15127;DHT22;7664;52.008;4.748;2023-12-20T06:36:14;8.50;99.90
15127;DHT22;7664;52.008;4.748;2023-12-20T06:38:42;8.50;99.90
15127;DHT22;7664;52.008;4.748;2023-12-20T06:41:13;8.50;99.90
15127;DHT22;7664;52.008;4.748;2023-12-20T06:43:43;8.60;99.90
15127;DHT22;7664;52.008;4.748;2023-12-20T06:46:16;8.50;99.90
15127;DHT22;7664;52.008;4.748;2023-12-20T06:48:45;8.50;99.90
15127;DHT22;7664;52.008;4.748;2023-12-20T06:51:15;8.50;99.90
15127;DHT22;7664;52.008;4.748;2023-12-20T06:53:43;8.60;99.90
15127;DHT22;7664;52.008;4.748;2023-12-20T06:56:12;8.50;99.90
15127;DHT22;7664;52.008;4.748;2023-12-20T06:58:45;8.50;99.90
15127;DHT22;7664;52.008;4.748;2023-12-20T07:01:14;8.60;99.90
15127;DHT22;7664;52.008;4.748;2023-12-20T07:03:43;8.60;99.90
15127;DHT22;7664;52.008;4.748;2023-12-20T07:06:11;8.60;99.90
15127;DHT22;7664;52.008;4.748;2023-12-20T07:08:40;8.60;99.90
15127;DHT22;7664;52.008;4.748;2023-12-20T07:11:08;8.70;99.90
15127;DHT22;7664;52.008;4.748;2023-12-20T07:13:37;8.70;99.90
15127;DHT22;7664;52.008;4.748;2023-12-20T07:16:07;8.70;99.90
15127;DHT22;7664;52.008;4.748;2023-12-20T07:18:35;8.70;99.90
15127;DHT22;7664;52.008;4.748;2023-12-20T07:21:04;8.70;99.90
15127;DHT22;7664;52.008;4.748;2023-12-20T07:23:32;8.70;99.90
15127;DHT22;7664;52.008;4.748;2023-12-20T07:26:00;8.70;99.90
15127;DHT22;7664;52.008;4.748;2023-12-20T07:28:28;8.70;99.90
15127;DHT22;7664;52.008;4.748;2023-12-20T07:30:56;8.70;99.90
15127;DHT22;7664;52.008;4.748;2023-12-20T07:33:26;8.60;99.90
15127;DHT22;7664;52.008;4.748;2023-12-20T07:35:54;8.60;99.90
15127;DHT22;7664;52.008;4.748;2023-12-20T07:38:22;8.60;99.90
15127;DHT22;7664;52.008;4.748;2023-12-20T07:40:50;8.50;99.90
15127;DHT22;7664;52.008;4.748;2023-12-20T07:43:18;8.50;99.90
15127;DHT22;7664;52.008;4.748;2023-12-20T07:45:47;8.50;99.90
15127;DHT22;7664;52.008;4.748;2023-12-20T07:48:15;8.50;99.90
15127;DHT22;7664;52.008;4.748;2023-12-20T07:50:45;8.50;99.90
15127;DHT22;7664;52.008;4.748;2023-12-20T07:53:13;8.50;99.90
15127;DHT22;7664;52.008;4.748;2023-12-20T07:55:41;8.60;99.90
15127;DHT22;7664;52.008;4.748;2023-12-20T07:58:10;8.50;99.90
15127;DHT22;7664;52.008;4.748;2023-12-20T08:00:38;8.50;99.90
15127;DHT22;7664;52.008;4.748;2023-12-20T08:03:06;8.60;99.90
15127;DHT22;7664;52.008;4.748;2023-12-20T08:05:34;8.60;99.90
15127;DHT22;7664;52.008;4.748;2023-12-20T08:08:05;8.60;99.90
15127;DHT22;7664;52.008;4.748;2023-12-20T08:10:33;8.70;99.90
15127;DHT22;7664;52.008;4.748;2023-12-20T08:13:01;8.70;99.90
15127;DHT22;7664;52.008;4.748;2023-12-20T08:15:29;8.70;99.90
15127;DHT22;7664;52.008;4.748;2023-12-20T08:17:57;8.70;99.90
15127;DHT22;7664;52.008;4.748;2023-12-20T08:20:26;8.70;99.90
15127;DHT22;7664;52.008;4.748;2023-12-20T08:23:07;8.80;99.90
15127;DHT22;7664;52.008;4.748;2023-12-20T08:25:35;8.80;99.90
15127;DHT22;7664;52.008;4.748;2023-12-20T08:28:04;8.80;99.90
15127;DHT22;7664;52.008;4.748;2023-12-20T08:30:32;8.90;99.90
15127;DHT22;7664;52.008;4.748;2023-12-20T08:33:00;8.90;99.90
15127;DHT22;7664;52.008;4.748;2023-12-20T08:35:29;8.90;99.90
15127;DHT22;7664;52.008;4.748;2023-12-20T08:37:57;9.00;99.90
15127;DHT22;7664;52.008;4.748;2023-12-20T08:40:28;9.00;99.90
15127;DHT22;7664;52.008;4.748;2023-12-20T08:42:56;9.00;99.90
15127;DHT22;7664;52.008;4.748;2023-12-20T08:45:24;9.00;99.90
15127;DHT22;7664;52.008;4.748;2023-12-20T08:47:52;9.10;99.90
15127;DHT22;7664;52.008;4.748;2023-12-20T08:50:23;9.10;99.90
15127;DHT22;7664;52.008;4.748;2023-12-20T08:52:52;9.10;99.90
15127;DHT22;7664;52.008;4.748;2023-12-20T08:55:20;9.10;99.90
15127;DHT22;7664;52.008;4.748;2023-12-20T08:57:49;9.20;99.90
15127;DHT22;7664;52.008;4.748;2023-12-20T09:00:18;9.20;99.90
15127;DHT22;7664;52.008;4.748;2023-12-20T09:02:47;9.20;99.90
15127;DHT22;7664;52.008;4.748;2023-12-20T09:05:15;9.20;99.90
15127;DHT22;7664;52.008;4.748;2023-12-20T09:07:44;9.20;99.90
15127;DHT22;7664;52.008;4.748;2023-12-20T09:10:12;9.30;99.90
15127;DHT22;7664;52.008;4.748;2023-12-20T09:12:44;9.30;99.90
15127;DHT22;7664;52.008;4.748;2023-12-20T09:15:15;9.30;99.90
15127;DHT22;7664;52.008;4.748;2023-12-20T09:17:43;9.30;99.90
15127;DHT22;7664;52.008;4.748;2023-12-20T09:20:12;9.30;99.90
15127;DHT22;7664;52.008;4.748;2023-12-20T09:22:41;9.30;99.90
15127;DHT22;7664;52.008;4.748;2023-12-20T09:25:10;9.40;99.90
15127;DHT22;7664;52.008;4.748;2023-12-20T09:27:40;9.40;99.90
15127;DHT22;7664;52.008;4.748;2023-12-20T09:30:09;9.50;99.90
15127;DHT22;7664;52.008;4.748;2023-12-20T09:32:39;9.50;99.90
15127;DHT22;7664;52.008;4.748;2023-12-20T09:35:08;9.50;99.90
15127;DHT22;7664;52.008;4.748;2023-12-20T09:37:37;9.50;99.90
15127;DHT22;7664;52.008;4.748;2023-12-20T09:40:06;9.50;99.90
15127;DHT22;7664;52.008;4.748;2023-12-20T09:42:39;9.50;99.90
15127;DHT22;7664;52.008;4.748;2023-12-20T09:45:13;9.60;99.90
15127;DHT22;7664;52.008;4.748;2023-12-20T09:47:44;9.60;99.90
15127;DHT22;7664;52.008;4.748;2023-12-20T09:50:13;9.60;99.90
15127;DHT22;7664;52.008;4.748;2023-12-20T09:52:42;9.60;99.90
15127;DHT22;7664;52.008;4.748;2023-12-20T09:55:11;9.60;99.90
15127;DHT22;7664;52.008;4.748;2023-12-20T09:57:40;9.70;99.90
15127;DHT22;7664;52.008;4.748;2023-12-20T10:00:09;9.70;99.90
15127;DHT22;7664;52.008;4.748;2023-12-20T10:02:40;9.80;99.90
15127;DHT22;7664;52.008;4.748;2023-12-20T10:05:16;9.80;99.90
15127;DHT22;7664;52.008;4.748;2023-12-20T10:07:46;9.90;99.90
15127;DHT22;7664;52.008;4.748;2023-12-20T10:10:15;9.90;99.90
15127;DHT22;7664;52.008;4.748;2023-12-20T10:13:01;9.90;99.90
15127;DHT22;7664;52.008;4.748;2023-12-20T10:15:30;9.90;99.90
15127;DHT22;7664;52.008;4.748;2023-12-20T10:17:58;9.90;99.90
15127;DHT22;7664;52.008;4.748;2023-12-20T10:20:30;9.90;99.90
15127;DHT22;7664;52.008;4.748;2023-12-20T10:23:00;10.00;99.90
15127;DHT22;7664;52.008;4.748;2023-12-20T10:25:28;10.00;99.90
15127;DHT22;7664;52.008;4.748;2023-12-20T10:28:12;10.00;99.90
15127;DHT22;7664;52.008;4.748;2023-12-20T10:30:42;10.10;99.90
15127;DHT22;7664;52.008;4.748;2023-12-20T10:33:10;10.10;99.90
15127;DHT22;7664;52.008;4.748;2023-12-20T10:35:40;10.10;99.90
15127;DHT22;7664;52.008;4.748;2023-12-20T10:38:14;10.10;99.90
15127;DHT22;7664;52.008;4.748;2023-12-20T10:40:45;10.10;99.90
15127;DHT22;7664;52.008;4.748;2023-12-20T10:43:15;10.10;99.90
15127;DHT22;7664;52.008;4.748;2023-12-20T10:45:43;10.20;99.90
15127;DHT22;7664;52.008;4.748;2023-12-20T10:48:11;10.20;99.90
15127;DHT22;7664;52.008;4.748;2023-12-20T10:50:41;10.20;99.90
15127;DHT22;7664;52.008;4.748;2023-12-20T10:53:10;10.20;99.90
15127;DHT22;7664;52.008;4.748;2023-12-20T10:55:42;10.20;99.90
15127;DHT22;7664;52.008;4.748;2023-12-20T10:58:11;10.20;99.90
15127;DHT22;7664;52.008;4.748;2023-12-20T11:00:41;10.30;99.90
15127;DHT22;7664;52.008;4.748;2023-12-20T11:03:12;10.30;99.90
15127;DHT22;7664;52.008;4.748;2023-12-20T11:05:46;10.30;99.90
15127;DHT22;7664;52.008;4.748;2023-12-20T11:08:22;10.40;99.90
15127;DHT22;7664;52.008;4.748;2023-12-20T11:10:58;10.40;99.90
15127;DHT22;7664;52.008;4.748;2023-12-20T11:13:32;10.50;99.90
15127;DHT22;7664;52.008;4.748;2023-12-20T11:16:02;10.40;99.90
15127;DHT22;7664;52.008;4.748;2023-12-20T11:18:31;10.40;99.90
15127;DHT22;7664;52.008;4.748;2023-12-20T11:21:02;10.40;99.90
15127;DHT22;7664;52.008;4.748;2023-12-20T11:23:32;10.50;99.90
15127;DHT22;7664;52.008;4.748;2023-12-20T11:26:02;10.40;99.90
15127;DHT22;7664;52.008;4.748;2023-12-20T11:28:31;10.50;99.90
15127;DHT22;7664;52.008;4.748;2023-12-20T11:31:01;10.50;99.90
15127;DHT22;7664;52.008;4.748;2023-12-20T11:33:31;10.50;99.90
15127;DHT22;7664;52.008;4.748;2023-12-20T11:35:59;10.50;99.90
15127;DHT22;7664;52.008;4.748;2023-12-20T11:38:36;10.60;99.90
15127;DHT22;7664;52.008;4.748;2023-12-20T11:41:06;10.60;99.90
15127;DHT22;7664;52.008;4.748;2023-12-20T11:43:38;10.50;99.90
15127;DHT22;7664;52.008;4.748;2023-12-20T11:46:07;10.60;99.90
15127;DHT22;7664;52.008;4.748;2023-12-20T11:48:38;10.60;99.90
15127;DHT22;7664;52.008;4.748;2023-12-20T11:51:10;10.60;99.90
15127;DHT22;7664;52.008;4.748;2023-12-20T11:53:41;10.60;99.90
15127;DHT22;7664;52.008;4.748;2023-12-20T11:56:10;10.70;99.90
15127;DHT22;7664;52.008;4.748;2023-12-20T11:58:39;10.60;99.90
15127;DHT22;7664;52.008;4.748;2023-12-20T12:01:08;10.70;99.90
15127;DHT22;7664;52.008;4.748;2023-12-20T12:03:36;10.60;99.90
15127;DHT22;7664;52.008;4.748;2023-12-20T12:06:05;10.60;99.90
15127;DHT22;7664;52.008;4.748;2023-12-20T12:08:35;10.60;99.90
15127;DHT22;7664;52.008;4.748;2023-12-20T12:11:05;10.70;99.90
15127;DHT22;7664;52.008;4.748;2023-12-20T12:13:34;10.70;99.90
15127;DHT22;7664;52.008;4.748;2023-12-20T12:16:02;10.70;99.90
15127;DHT22;7664;52.008;4.748;2023-12-20T12:18:31;10.70;99.90
15127;DHT22;7664;52.008;4.748;2023-12-20T12:21:03;10.80;99.90
15127;DHT22;7664;52.008;4.748;2023-12-20T12:23:41;10.70;99.90
15127;DHT22;7664;52.008;4.748;2023-12-20T12:26:10;10.70;99.90
15127;DHT22;7664;52.008;4.748;2023-12-20T12:28:40;10.70;99.90
15127;DHT22;7664;52.008;4.748;2023-12-20T12:31:09;10.70;99.90
15127;DHT22;7664;52.008;4.748;2023-12-20T12:33:41;10.70;99.90
15127;DHT22;7664;52.008;4.748;2023-12-20T12:36:12;10.80;99.90
15127;DHT22;7664;52.008;4.748;2023-12-20T12:38:42;10.70;99.90
15127;DHT22;7664;52.008;4.748;2023-12-20T12:41:14;10.80;99.90
15127;DHT22;7664;52.008;4.748;2023-12-20T12:43:43;10.80;99.90
15127;DHT22;7664;52.008;4.748;2023-12-20T12:46:11;10.80;99.90
15127;DHT22;7664;52.008;4.748;2023-12-20T12:48:40;10.80;99.90
15127;DHT22;7664;52.008;4.748;2023-12-20T12:51:11;10.80;99.90
15127;DHT22;7664;52.008;4.748;2023-12-20T12:53:40;10.80;99.90
15127;DHT22;7664;52.008;4.748;2023-12-20T12:56:09;10.80;99.90
15127;DHT22;7664;52.008;4.748;2023-12-20T12:58:39;10.80;99.90
15127;DHT22;7664;52.008;4.748;2023-12-20T13:01:07;10.80;99.90
15127;DHT22;7664;52.008;4.748;2023-12-20T13:03:36;10.80;99.90
15127;DHT22;7664;52.008;4.748;2023-12-20T13:06:05;10.80;99.90
15127;DHT22;7664;52.008;4.748;2023-12-20T13:08:35;10.80;99.90
15127;DHT22;7664;52.008;4.748;2023-12-20T13:11:03;10.80;99.90
15127;DHT22;7664;52.008;4.748;2023-12-20T13:13:32;10.70;99.90
15127;DHT22;7664;52.008;4.748;2023-12-20T13:16:01;10.80;99.90
15127;DHT22;7664;52.008;4.748;2023-12-20T13:18:30;10.80;99.90
15127;DHT22;7664;52.008;4.748;2023-12-20T13:20:58;10.80;99.90
15127;DHT22;7664;52.008;4.748;2023-12-20T13:23:26;10.70;99.90
15127;DHT22;7664;52.008;4.748;2023-12-20T13:25:54;10.70;99.90
15127;DHT22;7664;52.008;4.748;2023-12-20T13:28:22;10.70;99.90
15127;DHT22;7664;52.008;4.748;2023-12-20T13:30:50;10.70;99.90
15127;DHT22;7664;52.008;4.748;2023-12-20T13:33:20;10.70;99.90
15127;DHT22;7664;52.008;4.748;2023-12-20T13:35:49;10.70;99.90
15127;DHT22;7664;52.008;4.748;2023-12-20T13:38:17;10.70;99.90
15127;DHT22;7664;52.008;4.748;2023-12-20T13:40:45;10.70;99.90
15127;DHT22;7664;52.008;4.748;2023-12-20T13:43:13;10.70;99.90
15127;DHT22;7664;52.008;4.748;2023-12-20T13:45:43;10.70;99.90
15127;DHT22;7664;52.008;4.748;2023-12-20T13:48:12;10.70;99.90
15127;DHT22;7664;52.008;4.748;2023-12-20T13:50:41;10.70;99.90
15127;DHT22;7664;52.008;4.748;2023-12-20T13:53:10;10.60;99.90
15127;DHT22;7664;52.008;4.748;2023-12-20T13:55:38;10.70;99.90
15127;DHT22;7664;52.008;4.748;2023-12-20T13:58:07;10.70;99.90
15127;DHT22;7664;52.008;4.748;2023-12-20T14:00:37;10.60;99.90
15127;DHT22;7664;52.008;4.748;2023-12-20T14:03:05;10.60;99.90
15127;DHT22;7664;52.008;4.748;2023-12-20T14:05:33;10.60;99.90
15127;DHT22;7664;52.008;4.748;2023-12-20T14:08:06;10.60;99.90
15127;DHT22;7664;52.008;4.748;2023-12-20T14:10:35;10.60;99.90
15127;DHT22;7664;52.008;4.748;2023-12-20T14:13:04;10.60;99.90
15127;DHT22;7664;52.008;4.748;2023-12-20T14:15:32;10.60;99.90
15127;DHT22;7664;52.008;4.748;2023-12-20T14:18:05;10.60;99.90
15127;DHT22;7664;52.008;4.748;2023-12-20T14:20:38;10.50;99.90
15127;DHT22;7664;52.008;4.748;2023-12-20T14:23:13;10.50;99.90
15127;DHT22;7664;52.008;4.748;2023-12-20T14:25:42;10.50;99.90
15127;DHT22;7664;52.008;4.748;2023-12-20T14:28:18;10.50;99.90
15127;DHT22;7664;52.008;4.748;2023-12-20T14:30:47;10.50;99.90
15127;DHT22;7664;52.008;4.748;2023-12-20T14:33:16;10.50;99.90
15127;DHT22;7664;52.008;4.748;2023-12-20T14:35:46;10.50;99.90
15127;DHT22;7664;52.008;4.748;2023-12-20T14:38:16;10.50;99.90
15127;DHT22;7664;52.008;4.748;2023-12-20T14:40:45;10.50;99.90
15127;DHT22;7664;52.008;4.748;2023-12-20T14:43:13;10.50;99.90
15127;DHT22;7664;52.008;4.748;2023-12-20T14:45:43;10.50;99.90
15127;DHT22;7664;52.008;4.748;2023-12-20T14:48:11;10.50;99.90
15127;DHT22;7664;52.008;4.748;2023-12-20T14:50:40;10.50;99.90
15127;DHT22;7664;52.008;4.748;2023-12-20T14:53:09;10.40;99.90
15127;DHT22;7664;52.008;4.748;2023-12-20T14:55:39;10.40;99.90
15127;DHT22;7664;52.008;4.748;2023-12-20T14:58:08;10.40;99.90
15127;DHT22;7664;52.008;4.748;2023-12-20T15:00:36;10.40;99.90
15127;DHT22;7664;52.008;4.748;2023-12-20T15:03:05;10.40;99.90
15127;DHT22;7664;52.008;4.748;2023-12-20T15:05:34;10.40;99.90
15127;DHT22;7664;52.008;4.748;2023-12-20T15:08:03;10.40;99.90
15127;DHT22;7664;52.008;4.748;2023-12-20T15:10:31;10.30;99.90
15127;DHT22;7664;52.008;4.748;2023-12-20T15:13:01;10.30;99.90
15127;DHT22;7664;52.008;4.748;2023-12-20T15:15:29;10.30;99.90
15127;DHT22;7664;52.008;4.748;2023-12-20T15:17:59;10.30;99.90
15127;DHT22;7664;52.008;4.748;2023-12-20T15:20:28;10.30;99.90
15127;DHT22;7664;52.008;4.748;2023-12-20T15:22:56;10.30;99.90
15127;DHT22;7664;52.008;4.748;2023-12-20T15:25:25;10.30;99.90
15127;DHT22;7664;52.008;4.748;2023-12-20T15:27:53;10.30;99.90
15127;DHT22;7664;52.008;4.748;2023-12-20T15:30:23;10.20;99.90
15127;DHT22;7664;52.008;4.748;2023-12-20T15:32:52;10.20;99.90
15127;DHT22;7664;52.008;4.748;2023-12-20T15:35:20;10.20;99.90
15127;DHT22;7664;52.008;4.748;2023-12-20T15:37:48;10.20;99.90
15127;DHT22;7664;52.008;4.748;2023-12-20T15:40:17;10.20;99.90
15127;DHT22;7664;52.008;4.748;2023-12-20T15:42:46;10.20;99.90
15127;DHT22;7664;52.008;4.748;2023-12-20T15:45:14;10.20;99.90
15127;DHT22;7664;52.008;4.748;2023-12-20T15:47:43;10.20;99.90
15127;DHT22;7664;52.008;4.748;2023-12-20T15:50:12;10.20;99.90
15127;DHT22;7664;52.008;4.748;2023-12-20T15:52:40;10.20;99.90
15127;DHT22;7664;52.008;4.748;2023-12-20T15:55:10;10.20;99.90
15127;DHT22;7664;52.008;4.748;2023-12-20T15:57:38;10.20;99.90
15127;DHT22;7664;52.008;4.748;2023-12-20T16:00:20;10.20;99.90
15127;DHT22;7664;52.008;4.748;2023-12-20T16:02:49;10.20;99.90
15127;DHT22;7664;52.008;4.748;2023-12-20T16:05:17;10.10;99.90
15127;DHT22;7664;52.008;4.748;2023-12-20T16:07:46;10.10;99.90
15127;DHT22;7664;52.008;4.748;2023-12-20T16:10:15;10.10;99.90